sensor_id;sensor_type;location;lat;lon;timestamp;temperature;humidity
32147;DHT22;32190;49.112;8.598;2022-12-05T00:00:48;8.40;64.30
32147;DHT22;32190;49.112;8.598;2022-12-05T00:06:40;8.40;64.30
32147;DHT22;32190;49.112;8.598;2022-12-05T00:12:31;8.40;64.30
32147;DHT22;32190;49.112;8.598;2022-12-05T00:18:22;8.40;64.30
32147;DHT22;32190;49.112;8.598;2022-12-05T00:24:14;8.40;64.30
32147;DHT22;32190;49.112;8.598;2022-12-05T00:30:05;8.40;64.40
32147;DHT22;32190;49.112;8.598;2022-12-05T00:36:01;8.40;64.40
32147;DHT22;32190;49.112;8.598;2022-12-05T00:41:52;8.30;64.50
32147;DHT22;32190;49.112;8.598;2022-12-05T00:47:43;8.30;64.50
32147;DHT22;32190;49.112;8.598;2022-12-05T00:53:34;8.30;64.60
32147;DHT22;32190;49.112;8.598;2022-12-05T00:59:25;8.30;64.60
32147;DHT22;32190;49.112;8.598;2022-12-05T01:05:15;8.40;64.60
32147;DHT22;32190;49.112;8.598;2022-12-05T01:11:07;8.40;64.60
32147;DHT22;32190;49.112;8.598;2022-12-05T01:16:58;8.30;64.60
32147;DHT22;32190;49.112;8.598;2022-12-05T01:22:49;8.40;64.70
32147;DHT22;32190;49.112;8.598;2022-12-05T01:28:40;8.40;64.60
32147;DHT22;32190;49.112;8.598;2022-12-05T01:34:31;8.40;64.60
32147;DHT22;32190;49.112;8.598;2022-12-05T01:40:21;8.30;64.70
32147;DHT22;32190;49.112;8.598;2022-12-05T01:46:12;8.20;64.90
32147;DHT22;32190;49.112;8.598;2022-12-05T01:52:09;8.30;65.00
32147;DHT22;32190;49.112;8.598;2022-12-05T01:58:02;8.30;64.90
32147;DHT22;32190;49.112;8.598;2022-12-05T02:03:56;8.40;64.80
32147;DHT22;32190;49.112;8.598;2022-12-05T02:09:48;8.30;64.70
32147;DHT22;32190;49.112;8.598;2022-12-05T02:15:47;8.30;64.80
32147;DHT22;32190;49.112;8.598;2022-12-05T02:22:02;8.30;65.00
32147;DHT22;32190;49.112;8.598;2022-12-05T02:40:09;8.30;64.90
32147;DHT22;32190;49.112;8.598;2022-12-05T02:46:13;8.30;64.70
32147;DHT22;32190;49.112;8.598;2022-12-05T02:52:07;8.40;64.80
32147;DHT22;32190;49.112;8.598;2022-12-05T02:58:04;8.40;64.60
32147;DHT22;32190;49.112;8.598;2022-12-05T03:03:56;8.40;64.60
32147;DHT22;32190;49.112;8.598;2022-12-05T03:09:53;8.40;64.60
32147;DHT22;32190;49.112;8.598;2022-12-05T03:15:47;8.40;64.50
32147;DHT22;32190;49.112;8.598;2022-12-05T03:21:46;8.40;64.60
32147;DHT22;32190;49.112;8.598;2022-12-05T03:27:49;8.40;64.60
32147;DHT22;32190;49.112;8.598;2022-12-05T03:33:44;8.40;64.50
32147;DHT22;32190;49.112;8.598;2022-12-05T03:39:38;8.40;64.40
32147;DHT22;32190;49.112;8.598;2022-12-05T03:45:43;8.40;65.00
32147;DHT22;32190;49.112;8.598;2022-12-05T03:51:48;8.40;64.50
32147;DHT22;32190;49.112;8.598;2022-12-05T04:03:52;8.40;64.50
32147;DHT22;32190;49.112;8.598;2022-12-05T04:09:56;8.40;64.40
32147;DHT22;32190;49.112;8.598;2022-12-05T04:16:00;8.40;64.40
32147;DHT22;32190;49.112;8.598;2022-12-05T04:22:10;8.50;64.50
32147;DHT22;32190;49.112;8.598;2022-12-05T04:28:39;8.50;64.30
32147;DHT22;32190;49.112;8.598;2022-12-05T04:34:33;8.40;64.50
32147;DHT22;32190;49.112;8.598;2022-12-05T04:40:34;8.50;64.40
32147;DHT22;32190;49.112;8.598;2022-12-05T04:46:26;8.40;64.50
32147;DHT22;32190;49.112;8.598;2022-12-05T04:52:17;8.50;64.40
32147;DHT22;32190;49.112;8.598;2022-12-05T04:58:15;8.50;64.40
32147;DHT22;32190;49.112;8.598;2022-12-05T05:04:25;8.50;64.30
32147;DHT22;32190;49.112;8.598;2022-12-05T05:16:39;8.50;64.30
32147;DHT22;32190;49.112;8.598;2022-12-05T05:22:30;8.50;64.90
32147;DHT22;32190;49.112;8.598;2022-12-05T05:28:21;8.50;64.90
32147;DHT22;32190;49.112;8.598;2022-12-05T05:34:12;8.50;64.30
32147;DHT22;32190;49.112;8.598;2022-12-05T05:40:07;8.50;64.40
32147;DHT22;32190;49.112;8.598;2022-12-05T05:45:58;8.40;64.40
32147;DHT22;32190;49.112;8.598;2022-12-05T05:51:48;8.40;64.50
32147;DHT22;32190;49.112;8.598;2022-12-05T05:57:39;8.50;64.40
32147;DHT22;32190;49.112;8.598;2022-12-05T06:03:29;8.50;64.40
32147;DHT22;32190;49.112;8.598;2022-12-05T06:09:20;8.50;64.40
32147;DHT22;32190;49.112;8.598;2022-12-05T06:15:10;8.50;64.40
32147;DHT22;32190;49.112;8.598;2022-12-05T06:21:01;8.50;64.40
32147;DHT22;32190;49.112;8.598;2022-12-05T06:26:53;8.50;64.30
32147;DHT22;32190;49.112;8.598;2022-12-05T06:32:43;8.50;64.30
32147;DHT22;32190;49.112;8.598;2022-12-05T06:38:34;8.60;64.30
32147;DHT22;32190;49.112;8.598;2022-12-05T06:44:25;8.50;64.30
32147;DHT22;32190;49.112;8.598;2022-12-05T06:50:16;8.50;64.40
32147;DHT22;32190;49.112;8.598;2022-12-05T06:56:10;8.50;64.50
32147;DHT22;32190;49.112;8.598;2022-12-05T07:02:01;8.50;64.60
32147;DHT22;32190;49.112;8.598;2022-12-05T07:07:52;8.50;64.60
32147;DHT22;32190;49.112;8.598;2022-12-05T07:13:43;8.50;64.50
32147;DHT22;32190;49.112;8.598;2022-12-05T07:19:34;8.50;64.50
32147;DHT22;32190;49.112;8.598;2022-12-05T07:25:25;8.50;64.40
32147;DHT22;32190;49.112;8.598;2022-12-05T07:31:21;8.50;64.40
32147;DHT22;32190;49.112;8.598;2022-12-05T07:37:12;8.50;64.30
32147;DHT22;32190;49.112;8.598;2022-12-05T07:43:03;8.50;64.30
32147;DHT22;32190;49.112;8.598;2022-12-05T07:48:54;8.60;65.10
32147;DHT22;32190;49.112;8.598;2022-12-05T07:54:44;8.50;64.40
32147;DHT22;32190;49.112;8.598;2022-12-05T08:00:35;8.60;64.60
32147;DHT22;32190;49.112;8.598;2022-12-05T08:06:51;8.50;64.60
32147;DHT22;32190;49.112;8.598;2022-12-05T08:13:07;8.50;64.80
32147;DHT22;32190;49.112;8.598;2022-12-05T08:19:09;8.50;64.90
32147;DHT22;32190;49.112;8.598;2022-12-05T08:25:19;8.60;65.00
32147;DHT22;32190;49.112;8.598;2022-12-05T08:31:32;8.60;64.70
32147;DHT22;32190;49.112;8.598;2022-12-05T08:37:43;8.60;64.70
32147;DHT22;32190;49.112;8.598;2022-12-05T08:43:33;8.60;64.60
32147;DHT22;32190;49.112;8.598;2022-12-05T08:49:32;8.70;64.70
32147;DHT22;32190;49.112;8.598;2022-12-05T08:55:23;8.60;65.50
32147;DHT22;32190;49.112;8.598;2022-12-05T09:01:17;8.70;64.90
32147;DHT22;32190;49.112;8.598;2022-12-05T09:07:11;8.60;65.00
32147;DHT22;32190;49.112;8.598;2022-12-05T09:13:05;8.70;65.10
32147;DHT22;32190;49.112;8.598;2022-12-05T09:18:56;8.70;65.20
32147;DHT22;32190;49.112;8.598;2022-12-05T09:24:47;8.70;65.10
32147;DHT22;32190;49.112;8.598;2022-12-05T09:30:40;8.70;65.10
32147;DHT22;32190;49.112;8.598;2022-12-05T09:36:36;8.80;65.10
32147;DHT22;32190;49.112;8.598;2022-12-05T09:42:49;8.80;65.20
32147;DHT22;32190;49.112;8.598;2022-12-05T09:48:43;8.80;65.20
32147;DHT22;32190;49.112;8.598;2022-12-05T09:54:34;8.90;65.00
32147;DHT22;32190;49.112;8.598;2022-12-05T10:00:27;8.90;64.80
32147;DHT22;32190;49.112;8.598;2022-12-05T10:06:25;8.90;64.80
32147;DHT22;32190;49.112;8.598;2022-12-05T10:18:52;9.00;64.90
32147;DHT22;32190;49.112;8.598;2022-12-05T10:24:48;8.90;64.80
32147;DHT22;32190;49.112;8.598;2022-12-05T10:30:44;9.00;64.70
32147;DHT22;32190;49.112;8.598;2022-12-05T10:36:35;9.00;64.80
32147;DHT22;32190;49.112;8.598;2022-12-05T10:42:29;9.00;64.70
32147;DHT22;32190;49.112;8.598;2022-12-05T10:48:21;9.00;64.70
32147;DHT22;32190;49.112;8.598;2022-12-05T10:54:25;9.00;64.70
32147;DHT22;32190;49.112;8.598;2022-12-05T11:00:21;9.00;64.80
32147;DHT22;32190;49.112;8.598;2022-12-05T11:06:28;9.00;64.70
32147;DHT22;32190;49.112;8.598;2022-12-05T11:12:20;9.00;64.90
32147;DHT22;32190;49.112;8.598;2022-12-05T11:30:24;9.10;64.90
32147;DHT22;32190;49.112;8.598;2022-12-05T11:36:19;9.10;64.90
32147;DHT22;32190;49.112;8.598;2022-12-05T11:42:20;9.10;64.80
32147;DHT22;32190;49.112;8.598;2022-12-05T11:48:31;9.20;65.10
32147;DHT22;32190;49.112;8.598;2022-12-05T11:54:49;9.20;65.10
32147;DHT22;32190;49.112;8.598;2022-12-05T12:01:15;9.20;65.20
32147;DHT22;32190;49.112;8.598;2022-12-05T12:07:38;9.30;65.40
32147;DHT22;32190;49.112;8.598;2022-12-05T12:14:08;9.30;65.80
32147;DHT22;32190;49.112;8.598;2022-12-05T12:20:37;9.40;65.90
32147;DHT22;32190;49.112;8.598;2022-12-05T12:26:56;9.40;65.70
32147;DHT22;32190;49.112;8.598;2022-12-05T12:52:15;9.70;65.20
32147;DHT22;32190;49.112;8.598;2022-12-05T12:58:56;9.70;65.10
32147;DHT22;32190;49.112;8.598;2022-12-05T13:04:58;9.70;65.20
32147;DHT22;32190;49.112;8.598;2022-12-05T13:10:50;9.70;64.90
32147;DHT22;32190;49.112;8.598;2022-12-05T13:16:44;9.70;64.80
32147;DHT22;32190;49.112;8.598;2022-12-05T13:22:38;9.80;64.80
32147;DHT22;32190;49.112;8.598;2022-12-05T13:28:29;9.80;64.80
32147;DHT22;32190;49.112;8.598;2022-12-05T13:40:27;9.80;64.70
32147;DHT22;32190;49.112;8.598;2022-12-05T13:46:39;9.80;64.50
32147;DHT22;32190;49.112;8.598;2022-12-05T13:52:45;9.80;64.40
32147;DHT22;32190;49.112;8.598;2022-12-05T14:04:45;9.80;64.20
32147;DHT22;32190;49.112;8.598;2022-12-05T14:28:16;9.80;64.20
32147;DHT22;32190;49.112;8.598;2022-12-05T14:46:22;9.90;64.10
32147;DHT22;32190;49.112;8.598;2022-12-05T14:52:20;9.80;64.20
32147;DHT22;32190;49.112;8.598;2022-12-05T14:58:17;9.80;64.00
32147;DHT22;32190;49.112;8.598;2022-12-05T15:04:23;9.80;64.00
32147;DHT22;32190;49.112;8.598;2022-12-05T15:10:34;9.80;64.00
32147;DHT22;32190;49.112;8.598;2022-12-05T15:16:27;9.80;63.90
32147;DHT22;32190;49.112;8.598;2022-12-05T15:22:21;9.80;63.90
32147;DHT22;32190;49.112;8.598;2022-12-05T15:28:19;9.80;63.80
32147;DHT22;32190;49.112;8.598;2022-12-05T15:40:23;9.80;63.80
32147;DHT22;32190;49.112;8.598;2022-12-05T15:46:18;9.80;63.80
32147;DHT22;32190;49.112;8.598;2022-12-05T15:52:54;9.80;63.80
32147;DHT22;32190;49.112;8.598;2022-12-05T15:59:04;9.70;63.60
32147;DHT22;32190;49.112;8.598;2022-12-05T16:04:59;9.70;63.60
32147;DHT22;32190;49.112;8.598;2022-12-05T16:10:50;9.70;63.60
32147;DHT22;32190;49.112;8.598;2022-12-05T16:16:40;9.70;63.60
32147;DHT22;32190;49.112;8.598;2022-12-05T16:22:31;9.70;63.60
32147;DHT22;32190;49.112;8.598;2022-12-05T16:28:23;9.70;64.20
32147;DHT22;32190;49.112;8.598;2022-12-05T16:34:14;9.70;63.60
32147;DHT22;32190;49.112;8.598;2022-12-05T16:40:20;9.70;63.50
32147;DHT22;32190;49.112;8.598;2022-12-05T16:57:58;9.70;63.60
32147;DHT22;32190;49.112;8.598;2022-12-05T17:03:57;9.60;63.50
32147;DHT22;32190;49.112;8.598;2022-12-05T17:09:51;9.60;63.40
32147;DHT22;32190;49.112;8.598;2022-12-05T17:15:45;9.60;63.40
32147;DHT22;32190;49.112;8.598;2022-12-05T17:21:36;9.60;63.40
32147;DHT22;32190;49.112;8.598;2022-12-05T17:27:31;9.60;63.40
32147;DHT22;32190;49.112;8.598;2022-12-05T17:33:21;9.60;63.50
32147;DHT22;32190;49.112;8.598;2022-12-05T17:39:17;9.60;63.50
32147;DHT22;32190;49.112;8.598;2022-12-05T17:45:14;9.50;63.40
32147;DHT22;32190;49.112;8.598;2022-12-05T17:51:08;9.50;63.40
32147;DHT22;32190;49.112;8.598;2022-12-05T17:57:00;9.50;63.40
32147;DHT22;32190;49.112;8.598;2022-12-05T18:02:51;9.50;63.40
32147;DHT22;32190;49.112;8.598;2022-12-05T18:08:42;9.50;63.40
32147;DHT22;32190;49.112;8.598;2022-12-05T18:14:34;9.50;63.30
32147;DHT22;32190;49.112;8.598;2022-12-05T18:20:25;9.50;63.40
32147;DHT22;32190;49.112;8.598;2022-12-05T18:26:16;9.40;63.30
32147;DHT22;32190;49.112;8.598;2022-12-05T18:32:07;9.40;63.30
32147;DHT22;32190;49.112;8.598;2022-12-05T18:37:58;9.40;63.40
32147;DHT22;32190;49.112;8.598;2022-12-05T18:43:49;9.40;63.30
32147;DHT22;32190;49.112;8.598;2022-12-05T18:49:39;9.40;63.30
32147;DHT22;32190;49.112;8.598;2022-12-05T18:55:33;9.40;63.30
32147;DHT22;32190;49.112;8.598;2022-12-05T19:14:20;9.30;63.20
32147;DHT22;32190;49.112;8.598;2022-12-05T19:20:37;9.30;63.20
32147;DHT22;32190;49.112;8.598;2022-12-05T19:26:43;9.30;63.20
32147;DHT22;32190;49.112;8.598;2022-12-05T19:33:05;9.30;63.20
32147;DHT22;32190;49.112;8.598;2022-12-05T19:45:03;9.10;62.90
32147;DHT22;32190;49.112;8.598;2022-12-05T19:51:15;9.10;63.00
32147;DHT22;32190;49.112;8.598;2022-12-05T19:57:07;9.00;63.00
32147;DHT22;32190;49.112;8.598;2022-12-05T20:09:22;8.90;63.10
32147;DHT22;32190;49.112;8.598;2022-12-05T20:15:20;8.90;63.20
32147;DHT22;32190;49.112;8.598;2022-12-05T20:21:13;8.90;63.20
32147;DHT22;32190;49.112;8.598;2022-12-05T20:27:03;8.90;63.30
32147;DHT22;32190;49.112;8.598;2022-12-05T20:33:41;8.90;63.40
32147;DHT22;32190;49.112;8.598;2022-12-05T20:39:32;8.80;63.40
32147;DHT22;32190;49.112;8.598;2022-12-05T20:45:23;8.90;63.40
32147;DHT22;32190;49.112;8.598;2022-12-05T20:51:52;8.80;63.40
32147;DHT22;32190;49.112;8.598;2022-12-05T20:57:43;8.80;63.50
32147;DHT22;32190;49.112;8.598;2022-12-05T21:03:50;8.90;63.50
32147;DHT22;32190;49.112;8.598;2022-12-05T21:09:47;8.80;63.60
32147;DHT22;32190;49.112;8.598;2022-12-05T21:15:37;8.90;63.70
32147;DHT22;32190;49.112;8.598;2022-12-05T21:21:31;8.80;63.60
32147;DHT22;32190;49.112;8.598;2022-12-05T21:27:29;8.80;63.60
32147;DHT22;32190;49.112;8.598;2022-12-05T21:33:20;8.90;63.70
32147;DHT22;32190;49.112;8.598;2022-12-05T21:39:11;8.90;63.70
32147;DHT22;32190;49.112;8.598;2022-12-05T21:45:01;8.90;63.70
32147;DHT22;32190;49.112;8.598;2022-12-05T21:50:53;8.90;63.70
32147;DHT22;32190;49.112;8.598;2022-12-05T21:56:43;8.90;63.60
32147;DHT22;32190;49.112;8.598;2022-12-05T22:02:35;8.90;63.70
32147;DHT22;32190;49.112;8.598;2022-12-05T22:08:26;8.90;63.60
32147;DHT22;32190;49.112;8.598;2022-12-05T22:14:17;9.00;63.60
32147;DHT22;32190;49.112;8.598;2022-12-05T22:20:08;9.00;63.60
32147;DHT22;32190;49.112;8.598;2022-12-05T22:26:04;9.00;63.60
32147;DHT22;32190;49.112;8.598;2022-12-05T22:31:55;8.90;63.50
32147;DHT22;32190;49.112;8.598;2022-12-05T22:37:46;9.00;63.60
32147;DHT22;32190;49.112;8.598;2022-12-05T22:43:37;9.00;63.60
32147;DHT22;32190;49.112;8.598;2022-12-05T22:49:30;9.00;63.60
32147;DHT22;32190;49.112;8.598;2022-12-05T22:55:23;9.00;63.50
32147;DHT22;32190;49.112;8.598;2022-12-05T23:01:17;9.00;63.50
32147;DHT22;32190;49.112;8.598;2022-12-05T23:07:07;8.90;63.50
32147;DHT22;32190;49.112;8.598;2022-12-05T23:12:58;8.90;63.50
32147;DHT22;32190;49.112;8.598;2022-12-05T23:18:57;8.90;63.40
32147;DHT22;32190;49.112;8.598;2022-12-05T23:24:48;8.90;63.40
32147;DHT22;32190;49.112;8.598;2022-12-05T23:30:38;8.90;63.40
32147;DHT22;32190;49.112;8.598;2022-12-05T23:36:33;8.90;63.40
32147;DHT22;32190;49.112;8.598;2022-12-05T23:42:24;8.90;63.40
32147;DHT22;32190;49.112;8.598;2022-12-05T23:48:14;8.90;63.40
32147;DHT22;32190;49.112;8.598;2022-12-05T23:54:08;8.90;63.50
32147;DHT22;32190;49.112;8.598;2022-12-05T23:59:59;8.80;63.40
